Time;durP1;ratioP1;P1;durP2;ratioP2;P2;SDS_P1;SDS_P2;PMS_P1;PMS_P2;Temp;Humidity;BMP_temperature;BMP_pressure;BME280_temperature;BME280_humidity;BME280_pressure;Samples;Min_cycle;Max_cycle;Signal;HPM_P1;HPM_P2
2022/07/13 00:00:45;;;;;;;4.57;1.88;;;;;;;;;;4856080;29;20058;-71
2022/07/13 00:03:15;;;;;;;6.95;1.80;;;;;;;;;;4826133;29;20050;-72
2022/07/13 00:05:45;;;;;;;6.68;2.17;;;;;;;;;;4826065;29;20057;-72
2022/07/13 00:08:16;;;;;;;5.53;2.35;;;;;;;;;;4825745;29;20061;-72
2022/07/13 00:10:45;;;;;;;5.47;1.90;;;;;;;;;;4870069;29;20517;-71
2022/07/13 00:13:15;;;;;;;6.75;2.08;;;;;;;;;;4878699;29;20053;-72
2022/07/13 00:15:46;;;;;;;5.72;2.38;;;;;;;;;;4863561;29;20068;-71
2022/07/13 00:18:16;;;;;;;3.95;1.85;;;;;;;;;;4878778;29;20064;-71
2022/07/13 00:20:47;;;;;;;3.05;1.52;;;;;;;;;;4803313;29;20064;-72
2022/07/13 00:23:16;;;;;;;2.70;1.40;;;;;;;;;;4878282;29;20068;-71
2022/07/13 00:25:46;;;;;;;6.25;1.55;;;;;;;;;;4863053;29;20053;-71
2022/07/13 00:28:16;;;;;;;2.38;1.13;;;;;;;;;;4847434;29;20061;-71
2022/07/13 00:30:47;;;;;;;3.38;1.38;;;;;;;;;;4880333;29;20049;-70
2022/07/13 00:33:17;;;;;;;2.58;1.15;;;;;;;;;;4880592;29;20470;-70
2022/07/13 00:35:47;;;;;;;4.25;1.70;;;;;;;;;;4863492;29;20541;-72
2022/07/13 00:38:17;;;;;;;3.67;1.73;;;;;;;;;;4828993;29;20072;-71
2022/07/13 00:40:47;;;;;;;4.90;1.63;;;;;;;;;;4859450;29;20069;-71
2022/07/13 00:43:18;;;;;;;2.92;1.35;;;;;;;;;;4859268;29;20058;-71
2022/07/13 00:45:51;;;;;;;3.17;1.30;;;;;;;;;;4840603;29;20533;-72
2022/07/13 00:48:22;;;;;;;4.53;1.77;;;;;;;;;;4796616;29;20069;-72
2022/07/13 00:50:53;;;;;;;5.25;1.85;;;;;;;;;;4714058;30;20043;-70
2022/07/13 00:53:24;;;;;;;5.78;1.92;;;;;;;;;;4768173;30;20474;-71
2022/07/13 00:55:54;;;;;;;5.72;1.77;;;;;;;;;;4753416;30;20056;-72
2022/07/13 00:58:25;;;;;;;3.85;1.52;;;;;;;;;;4750142;30;20540;-71
2022/07/13 01:00:55;;;;;;;3.97;1.70;;;;;;;;;;4750548;30;20064;-72
2022/07/13 01:03:26;;;;;;;4.65;1.73;;;;;;;;;;4750325;30;20081;-72
2022/07/13 01:05:57;;;;;;;5.93;1.45;;;;;;;;;;4721188;30;20052;-72
2022/07/13 01:08:28;;;;;;;3.72;1.67;;;;;;;;;;4750356;30;20466;-71
2022/07/13 01:10:58;;;;;;;4.43;1.95;;;;;;;;;;4734475;30;20072;-71
2022/07/13 01:13:29;;;;;;;6.45;1.85;;;;;;;;;;4750168;30;20067;-72
2022/07/13 01:16:00;;;;;;;5.00;2.00;;;;;;;;;;4720848;30;20067;-72
2022/07/13 01:18:30;;;;;;;5.10;1.80;;;;;;;;;;4764809;30;20063;-72
2022/07/13 01:21:02;;;;;;;4.63;1.90;;;;;;;;;;4764163;30;20049;-73
2022/07/13 01:23:33;;;;;;;3.20;1.48;;;;;;;;;;4777112;29;20056;-73
2022/07/13 01:26:05;;;;;;;4.68;1.88;;;;;;;;;;4803717;29;20070;-72
2022/07/13 01:28:36;;;;;;;3.97;1.88;;;;;;;;;;4834671;29;20422;-72
2022/07/13 01:31:06;;;;;;;5.55;2.03;;;;;;;;;;4843305;29;20105;-72
2022/07/13 01:33:37;;;;;;;6.78;2.33;;;;;;;;;;4858226;29;20057;-72
2022/07/13 01:36:08;;;;;;;6.70;1.77;;;;;;;;;;4858409;29;20458;-72
2022/07/13 01:38:38;;;;;;;5.00;2.22;;;;;;;;;;4858502;29;20069;-72
2022/07/13 01:41:08;;;;;;;3.42;1.50;;;;;;;;;;4839730;29;20054;-72
2022/07/13 01:43:39;;;;;;;3.75;1.83;;;;;;;;;;4839721;29;20045;-71
2022/07/13 01:46:11;;;;;;;7.45;1.83;;;;;;;;;;4803480;29;20051;-72
2022/07/13 01:48:41;;;;;;;;;;;;;;;;;;4803612;29;20114;-72
2022/07/13 01:51:11;;;;;;;4.43;1.75;;;;;;;;;;4803534;29;19932;-71
2022/07/13 01:53:43;;;;;;;6.10;2.00;;;;;;;;;;4821256;29;20059;-73
2022/07/13 01:56:14;;;;;;;5.20;1.85;;;;;;;;;;4777039;29;20134;-72
2022/07/13 01:58:44;;;;;;;3.03;1.70;;;;;;;;;;4773646;29;20074;-71
2022/07/13 02:01:15;;;;;;;4.15;2.35;;;;;;;;;;4788526;29;20058;-72
2022/07/13 02:03:46;;;;;;;4.07;1.90;;;;;;;;;;4756410;30;20066;-72
2022/07/13 02:06:17;;;;;;;5.50;1.83;;;;;;;;;;4784809;30;20063;-72
2022/07/13 02:08:48;;;;;;;3.00;1.30;;;;;;;;;;4802724;29;20066;-70
2022/07/13 02:11:21;;;;;;;5.07;2.28;;;;;;;;;;4756179;30;20056;-72
2022/07/13 02:13:51;;;;;;;4.13;1.92;;;;;;;;;;4734110;30;20052;-73
2022/07/13 02:16:21;;;;;;;6.22;2.25;;;;;;;;;;4719984;30;20060;-72
2022/07/13 02:18:52;;;;;;;3.78;1.92;;;;;;;;;;4749066;30;20057;-71
2022/07/13 02:21:23;;;;;;;5.70;2.45;;;;;;;;;;4748901;30;20060;-71
2022/07/13 02:23:53;;;;;;;4.80;2.00;;;;;;;;;;4758342;30;20466;-72
2022/07/13 02:26:23;;;;;;;8.93;2.92;;;;;;;;;;4784352;30;20184;-72
2022/07/13 02:28:53;;;;;;;9.13;3.17;;;;;;;;;;4802587;29;20055;-72
2022/07/13 02:31:23;;;;;;;14.32;4.28;;;;;;;;;;4771852;30;20418;-73
2022/07/13 02:33:53;;;;;;;13.38;4.00;;;;;;;;;;4763588;30;20056;-72
2022/07/13 02:36:23;;;;;;;11.25;3.35;;;;;;;;;;4754890;30;20068;-71
2022/07/13 02:38:53;;;;;;;10.48;3.35;;;;;;;;;;4769035;30;20059;-72
2022/07/13 02:41:23;;;;;;;9.38;3.08;;;;;;;;;;4740557;30;20061;-72
2022/07/13 02:43:53;;;;;;;7.65;3.30;;;;;;;;;;4745542;30;20060;-72
2022/07/13 02:46:23;;;;;;;11.75;4.05;;;;;;;;;;4766293;30;20060;-73
2022/07/13 02:48:54;;;;;;;6.65;2.65;;;;;;;;;;4732049;30;20612;-71
2022/07/13 02:51:23;;;;;;;6.22;2.90;;;;;;;;;;4776290;30;20062;-72
2022/07/13 02:53:53;;;;;;;11.18;2.70;;;;;;;;;;4751829;30;20067;-72
2022/07/13 02:56:26;;;;;;;10.27;3.40;;;;;;;;;;4773628;30;20088;-73
2022/07/13 02:58:56;;;;;;;10.05;2.97;;;;;;;;;;4726016;30;20069;-72
2022/07/13 03:01:26;;;;;;;6.22;2.42;;;;;;;;;;4748066;30;20056;-72
2022/07/13 03:03:57;;;;;;;7.40;2.70;;;;;;;;;;4740129;30;20537;-72
2022/07/13 03:06:27;;;;;;;5.32;2.65;;;;;;;;;;4722910;30;20068;-72
2022/07/13 03:08:57;;;;;;;5.38;2.28;;;;;;;;;;4713045;30;20554;-72
2022/07/13 03:11:28;;;;;;;7.57;3.25;;;;;;;;;;4727266;30;20076;-72
2022/07/13 03:13:58;;;;;;;8.60;3.20;;;;;;;;;;4730424;30;20068;-71
2022/07/13 03:16:28;;;;;;;6.70;3.05;;;;;;;;;;4692295;30;20058;-71
2022/07/13 03:18:59;;;;;;;7.40;2.85;;;;;;;;;;4678675;30;20085;-71
2022/07/13 03:21:29;;;;;;;9.98;2.97;;;;;;;;;;4668144;30;20062;-72
2022/07/13 03:24:00;;;;;;;9.95;2.75;;;;;;;;;;4669038;30;20074;-72
2022/07/13 03:26:30;;;;;;;7.60;2.58;;;;;;;;;;4627483;30;20060;-73
2022/07/13 03:29:00;;;;;;;5.90;2.53;;;;;;;;;;4678414;30;20062;-73
2022/07/13 03:31:31;;;;;;;9.18;2.88;;;;;;;;;;4706579;30;20066;-72
2022/07/13 03:34:02;;;;;;;7.78;3.15;;;;;;;;;;4649809;30;20108;-72
2022/07/13 03:36:34;;;;;;;8.30;2.92;;;;;;;;;;4661305;30;20069;-71
2022/07/13 03:39:06;;;;;;;11.40;4.10;;;;;;;;;;4686424;30;20073;-72
2022/07/13 03:41:37;;;;;;;10.82;3.03;;;;;;;;;;4712678;30;20065;-73
2022/07/13 03:44:07;;;;;;;7.50;2.67;;;;;;;;;;4714079;30;20064;-72
2022/07/13 03:46:37;;;;;;;8.15;2.67;;;;;;;;;;4675764;30;20058;-71
2022/07/13 03:49:08;;;;;;;6.95;2.83;;;;;;;;;;4728345;30;20182;-72
2022/07/13 03:51:40;;;;;;;10.05;3.47;;;;;;;;;;4692727;30;20063;-72
2022/07/13 03:54:12;;;;;;;7.15;3.08;;;;;;;;;;4697541;30;20437;-72
2022/07/13 03:56:42;;;;;;;5.93;2.78;;;;;;;;;;4664237;30;20058;-72
2022/07/13 03:59:12;;;;;;;8.15;3.35;;;;;;;;;;4690137;30;20069;-72
2022/07/13 04:01:43;;;;;;;8.27;2.95;;;;;;;;;;4686784;30;20058;-72
2022/07/13 04:04:13;;;;;;;7.93;3.17;;;;;;;;;;4714559;30;20070;-72
2022/07/13 04:06:44;;;;;;;5.82;2.58;;;;;;;;;;4724235;30;20503;-71
2022/07/13 04:09:14;;;;;;;10.18;3.45;;;;;;;;;;4733310;30;20060;-72
2022/07/13 04:11:44;;;;;;;8.20;3.58;;;;;;;;;;4732919;30;20072;-71
2022/07/13 04:14:15;;;;;;;11.18;3.72;;;;;;;;;;4713255;30;20053;-72
2022/07/13 04:16:45;;;;;;;7.53;3.40;;;;;;;;;;4742513;30;20060;-71
2022/07/13 04:19:16;;;;;;;7.07;2.90;;;;;;;;;;4724925;30;20068;-72
2022/07/13 04:21:46;;;;;;;10.38;3.30;;;;;;;;;;4710204;30;20057;-72
2022/07/13 04:24:23;;;;;;;8.55;3.40;;;;;;;;;;4694023;30;20061;-71
2022/07/13 04:26:55;;;;;;;7.50;3.35;;;;;;;;;;4680737;30;20054;-71
2022/07/13 04:29:25;;;;;;;8.05;2.65;;;;;;;;;;4696212;30;20631;-72
2022/07/13 04:31:55;;;;;;;9.65;3.17;;;;;;;;;;4695161;30;20065;-72
2022/07/13 04:34:25;;;;;;;10.60;3.00;;;;;;;;;;4664056;30;20067;-72
2022/07/13 04:36:55;;;;;;;7.82;2.97;;;;;;;;;;4680754;30;20063;-71
2022/07/13 04:39:27;;;;;;;5.68;2.60;;;;;;;;;;4656561;30;20074;-71
2022/07/13 04:42:01;;;;;;;12.38;2.97;;;;;;;;;;4698166;30;20561;-72
2022/07/13 04:44:32;;;;;;;5.38;2.78;;;;;;;;;;4653671;30;20441;-71
2022/07/13 04:47:07;;;;;;;7.85;3.72;;;;;;;;;;4660083;30;20112;-71
2022/07/13 04:49:38;;;;;;;9.45;2.92;;;;;;;;;;4684369;30;20444;-72
2022/07/13 04:52:09;;;;;;;12.27;3.40;;;;;;;;;;4701049;30;20065;-72
2022/07/13 04:54:42;;;;;;;7.00;2.85;;;;;;;;;;4714741;30;20414;-72
2022/07/13 04:57:12;;;;;;;7.50;3.05;;;;;;;;;;4749821;30;20067;-73
2022/07/13 04:59:42;;;;;;;7.32;3.30;;;;;;;;;;4742571;30;20056;-73
2022/07/13 05:02:13;;;;;;;7.82;3.25;;;;;;;;;;4750057;30;20060;-71
2022/07/13 05:04:46;;;;;;;9.15;3.67;;;;;;;;;;4740564;30;20540;-71
2022/07/13 05:07:16;;;;;;;;;;;;;;;;;;4715429;30;20057;-73
2022/07/13 05:09:46;;;;;;;7.53;3.22;;;;;;;;;;4677907;30;19927;-71
2022/07/13 05:12:17;;;;;;;7.97;3.22;;;;;;;;;;4666093;30;20066;-72
2022/07/13 05:14:47;;;;;;;8.63;3.60;;;;;;;;;;4694595;30;20077;-73
2022/07/13 05:17:17;;;;;;;6.55;2.83;;;;;;;;;;4715000;30;20072;-72
2022/07/13 05:19:48;;;;;;;7.40;2.85;;;;;;;;;;4705233;30;20439;-72
2022/07/13 05:22:20;;;;;;;7.03;2.80;;;;;;;;;;4697363;30;20068;-71
2022/07/13 05:24:50;;;;;;;6.68;2.60;;;;;;;;;;4669233;30;20104;-72
2022/07/13 05:27:20;;;;;;;8.82;3.03;;;;;;;;;;4699936;30;20057;-72
2022/07/13 05:29:52;;;;;;;6.50;3.05;;;;;;;;;;4668985;30;20054;-71
2022/07/13 05:32:22;;;;;;;8.25;3.45;;;;;;;;;;4688780;30;20054;-71
2022/07/13 05:34:54;;;;;;;6.50;2.88;;;;;;;;;;4696896;30;20530;-72
2022/07/13 05:37:24;;;;;;;8.98;3.08;;;;;;;;;;4705672;30;20455;-71
2022/07/13 05:39:55;;;;;;;11.13;2.75;;;;;;;;;;4734633;30;20139;-71
2022/07/13 05:42:28;;;;;;;7.38;2.75;;;;;;;;;;4702655;30;20079;-72
2022/07/13 05:45:01;;;;;;;7.30;2.75;;;;;;;;;;4697304;30;20571;-73
2022/07/13 05:47:32;;;;;;;7.57;2.65;;;;;;;;;;4705363;30;20508;-72
2022/07/13 05:50:02;;;;;;;6.82;3.03;;;;;;;;;;4713949;30;20536;-73
2022/07/13 05:52:33;;;;;;;7.97;3.38;;;;;;;;;;4714445;30;20112;-73
2022/07/13 05:55:06;;;;;;;10.05;3.75;;;;;;;;;;4739771;30;20056;-72
2022/07/13 05:57:36;;;;;;;8.88;3.55;;;;;;;;;;4746265;30;20067;-72
2022/07/13 06:00:13;;;;;;;8.23;3.40;;;;;;;;;;4746328;30;20087;-72
2022/07/13 06:02:44;;;;;;;7.03;2.70;;;;;;;;;;4731770;30;20068;-72
2022/07/13 06:05:14;;;;;;;7.90;2.95;;;;;;;;;;4721745;30;20515;-72
2022/07/13 06:07:45;;;;;;;6.88;3.38;;;;;;;;;;4721074;30;20411;-73
2022/07/13 06:10:14;;;;;;;5.25;2.47;;;;;;;;;;4714265;30;20411;-73
2022/07/13 06:12:45;;;;;;;7.43;2.80;;;;;;;;;;4729353;30;20064;-73
2022/07/13 06:15:16;;;;;;;6.57;2.70;;;;;;;;;;4738978;30;20064;-72
2022/07/13 06:17:45;;;;;;;10.30;3.42;;;;;;;;;;4752011;30;20067;-72
2022/07/13 06:20:16;;;;;;;7.82;3.60;;;;;;;;;;4766875;30;20068;-72
2022/07/13 06:23:09;;;;;;;8.93;3.38;;;;;;;;;;4791380;29;20067;-71
2022/07/13 06:25:37;;;;;;;9.75;3.80;;;;;;;;;;4791195;29;20068;-72
2022/07/13 06:28:08;;;;;;;9.25;3.28;;;;;;;;;;4808603;29;20706;-71
2022/07/13 06:30:37;;;;;;;6.75;2.50;;;;;;;;;;4839080;29;20065;-70
2022/07/13 06:33:07;;;;;;;5.90;2.63;;;;;;;;;;4864906;29;20061;-71
2022/07/13 06:35:37;;;;;;;5.40;2.50;;;;;;;;;;4876103;29;20067;-71
2022/07/13 06:38:08;;;;;;;6.55;2.53;;;;;;;;;;4878448;29;20044;-71
2022/07/13 06:40:38;;;;;;;8.13;2.88;;;;;;;;;;4845575;29;20064;-71
2022/07/13 06:43:08;;;;;;;8.40;3.10;;;;;;;;;;4860462;29;20057;-72
2022/07/13 06:45:38;;;;;;;7.20;2.80;;;;;;;;;;4845302;29;20061;-72
2022/07/13 06:48:08;;;;;;;7.72;2.72;;;;;;;;;;4815622;29;20520;-72
2022/07/13 06:50:39;;;;;;;7.07;2.88;;;;;;;;;;4876053;29;20394;-72
2022/07/13 06:53:09;;;;;;;5.95;2.70;;;;;;;;;;4877980;29;20478;-72
2022/07/13 06:55:39;;;;;;;7.15;2.90;;;;;;;;;;4877962;29;20402;-71
2022/07/13 06:58:09;;;;;;;7.18;3.15;;;;;;;;;;4877928;29;20052;-73
2022/07/13 07:00:39;;;;;;;10.57;3.17;;;;;;;;;;4845259;29;20415;-72
2022/07/13 07:03:10;;;;;;;6.47;2.70;;;;;;;;;;4845386;29;20493;-72
2022/07/13 07:05:40;;;;;;;8.50;2.90;;;;;;;;;;4860470;29;20045;-72
2022/07/13 07:08:10;;;;;;;6.90;3.20;;;;;;;;;;4844935;29;20056;-72
2022/07/13 07:10:40;;;;;;;6.75;2.35;;;;;;;;;;4844635;29;20601;-71
2022/07/13 07:13:11;;;;;;;7.47;2.42;;;;;;;;;;4845239;29;20071;-72
2022/07/13 07:15:41;;;;;;;8.82;2.60;;;;;;;;;;4877574;29;20056;-72
2022/07/13 07:18:12;;;;;;;7.03;2.90;;;;;;;;;;4874931;29;20056;-72
2022/07/13 07:20:42;;;;;;;6.60;2.42;;;;;;;;;;4814244;29;20545;-73
2022/07/13 07:23:12;;;;;;;7.18;2.45;;;;;;;;;;4860032;29;20060;-72
2022/07/13 07:25:43;;;;;;;7.47;3.38;;;;;;;;;;4844923;29;20072;-71
2022/07/13 07:28:13;;;;;;;8.57;3.33;;;;;;;;;;4877649;29;20041;-71
2022/07/13 07:30:43;;;;;;;7.47;2.88;;;;;;;;;;4860617;29;20061;-71
2022/07/13 07:33:13;;;;;;;6.90;3.05;;;;;;;;;;4814163;29;20053;-72
2022/07/13 07:35:43;;;;;;;6.35;2.75;;;;;;;;;;4877335;29;20049;-72
2022/07/13 07:38:13;;;;;;;6.78;2.88;;;;;;;;;;4875479;29;20060;-72
2022/07/13 07:40:44;;;;;;;6.57;2.85;;;;;;;;;;4859332;29;20116;-72
2022/07/13 07:43:14;;;;;;;5.28;2.38;;;;;;;;;;4859968;29;20064;-72
2022/07/13 07:45:44;;;;;;;7.07;3.00;;;;;;;;;;4877435;29;20065;-72
2022/07/13 07:48:14;;;;;;;6.50;2.92;;;;;;;;;;4829729;29;20068;-73
2022/07/13 07:50:44;;;;;;;8.07;2.28;;;;;;;;;;4859794;29;20077;-72
2022/07/13 07:53:14;;;;;;;7.65;3.00;;;;;;;;;;4860642;29;20061;-72
2022/07/13 07:55:44;;;;;;;8.02;3.13;;;;;;;;;;4844742;29;20792;-71
2022/07/13 07:58:14;;;;;;;7.97;3.08;;;;;;;;;;4877375;29;20070;-71
2022/07/13 08:00:44;;;;;;;12.07;4.35;;;;;;;;;;4844205;29;20426;-69
2022/07/13 08:03:14;;;;;;;8.93;3.38;;;;;;;;;;4859886;29;20064;-71
2022/07/13 08:05:48;;;;;;;7.03;2.97;;;;;;;;;;4844458;29;20065;-72
2022/07/13 08:08:18;;;;;;;7.15;2.80;;;;;;;;;;4830662;29;20056;-72
2022/07/13 08:10:48;;;;;;;8.80;3.03;;;;;;;;;;4829125;29;20049;-72
2022/07/13 08:13:18;;;;;;;8.60;3.38;;;;;;;;;;4860332;29;20065;-71
2022/07/13 08:15:48;;;;;;;8.52;3.05;;;;;;;;;;4829198;29;20049;-70
2022/07/13 08:18:18;;;;;;;7.38;2.53;;;;;;;;;;4877618;29;20465;-72
2022/07/13 08:21:09;;;;;;;8.82;3.03;;;;;;;;;;4875738;29;20415;-71
2022/07/13 08:23:52;;;;;;;6.78;3.03;;;;;;;;;;4814846;29;20053;-70
2022/07/13 08:26:24;;;;;;;10.85;3.08;;;;;;;;;;4877283;29;20402;-72
2022/07/13 08:28:56;;;;;;;7.28;2.67;;;;;;;;;;4813878;29;20049;-73
2022/07/13 08:31:27;;;;;;;8.05;2.70;;;;;;;;;;4832455;29;20064;-73
2022/07/13 08:39:34;;;;;;;13.20;2.85;;;;;;;;;;4866065;29;20068;-72
2022/07/13 08:42:04;;;;;;;7.57;2.42;;;;;;;;;;4847499;29;20064;-70
2022/07/13 08:44:35;;;;;;;10.02;2.60;;;;;;;;;;4878318;29;20418;-71
2022/07/13 08:47:07;;;;;;;4.97;1.75;;;;;;;;;;4880501;29;20053;-71
2022/07/13 08:49:37;;;;;;;9.13;2.45;;;;;;;;;;4863345;29;20520;-73
2022/07/13 08:52:08;;;;;;;7.60;2.90;;;;;;;;;;4880447;29;20060;-72
2022/07/13 08:54:38;;;;;;;8.27;2.60;;;;;;;;;;4880100;29;20494;-72
2022/07/13 08:57:08;;;;;;;7.20;1.52;;;;;;;;;;4847539;29;20061;-72
2022/07/13 08:59:38;;;;;;;3.85;1.58;;;;;;;;;;4831598;29;20053;-71
2022/07/13 09:02:09;;;;;;;3.38;1.63;;;;;;;;;;4832473;29;20504;-70
2022/07/13 09:04:44;;;;;;;5.72;1.85;;;;;;;;;;4878286;29;20067;-71
2022/07/13 09:07:14;;;;;;;4.47;1.55;;;;;;;;;;4831769;29;20052;-71
2022/07/13 09:09:44;;;;;;;3.55;1.25;;;;;;;;;;4877649;29;20060;-70
2022/07/13 09:12:35;;;;;;;3.05;1.27;;;;;;;;;;4862375;29;20068;-71
2022/07/13 09:15:07;;;;;;;4.00;1.58;;;;;;;;;;4847469;29;20053;-71
2022/07/13 09:17:46;;;;;;;5.43;1.60;;;;;;;;;;4879843;29;20064;-71
2022/07/13 09:20:19;;;;;;;5.90;1.63;;;;;;;;;;4831426;29;21175;-71
2022/07/13 09:23:05;;;;;;;1.95;0.80;;;;;;;;;;4864593;29;20057;-70
2022/07/13 09:25:37;;;;;;;4.88;1.50;;;;;;;;;;4879891;29;20049;-72
2022/07/13 09:28:09;;;;;;;;;;;;;;;;;;4862606;29;20084;-72
2022/07/13 09:30:43;;;;;;;3.15;1.30;;;;;;;;;;4879927;29;19930;-72
2022/07/13 09:33:13;;;;;;;4.90;1.63;;;;;;;;;;4830903;29;20053;-72
2022/07/13 09:35:48;;;;;;;4.85;1.60;;;;;;;;;;4879733;29;20045;-72
2022/07/13 09:38:41;;;;;;;4.78;1.45;;;;;;;;;;4861971;29;20068;-72
2022/07/13 09:41:27;;;;;;;4.78;1.77;;;;;;;;;;4863515;29;20076;-71
2022/07/13 09:47:05;;;;;;;5.72;1.90;;;;;;;;;;4851652;29;20057;-71
2022/07/13 09:49:44;;;;;;;5.85;2.00;;;;;;;;;;4846172;29;20502;-71
2022/07/13 09:52:18;;;;;;;8.32;3.22;;;;;;;;;;4879191;29;20394;-71
2022/07/13 09:54:51;;;;;;;5.57;2.47;;;;;;;;;;4832963;29;20057;-71
2022/07/13 09:57:24;;;;;;;7.70;2.33;;;;;;;;;;4861618;29;20057;-72
2022/07/13 09:59:56;;;;;;;5.53;2.05;;;;;;;;;;4876992;29;20414;-72
2022/07/13 10:02:26;;;;;;;6.30;2.50;;;;;;;;;;4831862;29;20060;-72
2022/07/13 10:04:57;;;;;;;6.90;2.35;;;;;;;;;;4846022;29;20064;-72
2022/07/13 10:07:30;;;;;;;5.90;1.92;;;;;;;;;;4860775;29;20425;-72
2022/07/13 10:10:05;;;;;;;4.32;1.85;;;;;;;;;;4878555;29;20060;-71
2022/07/13 10:12:37;;;;;;;4.68;1.60;;;;;;;;;;4876558;29;20494;-72
2022/07/13 10:15:10;;;;;;;6.55;2.33;;;;;;;;;;4861505;29;20068;-71
2022/07/13 10:17:48;;;;;;;5.47;2.17;;;;;;;;;;4861064;29;20061;-71
2022/07/13 10:20:22;;;;;;;4.78;1.77;;;;;;;;;;4831723;29;20072;-71
2022/07/13 10:22:59;;;;;;;6.40;2.20;;;;;;;;;;4817934;29;20080;-72
2022/07/13 10:25:45;;;;;;;5.13;2.25;;;;;;;;;;4875369;29;20489;-71
2022/07/13 10:28:19;;;;;;;9.13;3.00;;;;;;;;;;4831161;29;20052;-71
2022/07/13 10:30:50;;;;;;;15.10;5.13;;;;;;;;;;4800122;29;20516;-71
2022/07/13 10:33:27;;;;;;;6.93;2.70;;;;;;;;;;4876110;29;20053;-71
2022/07/13 10:35:58;;;;;;;10.00;4.03;;;;;;;;;;4814586;29;20061;-70
2022/07/13 10:38:28;;;;;;;8.05;3.75;;;;;;;;;;4845361;29;20064;-72
2022/07/13 10:41:22;;;;;;;6.75;3.15;;;;;;;;;;4860629;29;20409;-72
2022/07/13 10:44:16;;;;;;;8.25;3.50;;;;;;;;;;4841887;29;20061;-71
2022/07/13 10:46:49;;;;;;;6.18;2.30;;;;;;;;;;4826927;29;20088;-70
2022/07/13 10:49:47;;;;;;;8.65;3.13;;;;;;;;;;4841806;29;20489;-70
2022/07/13 10:52:26;;;;;;;6.18;2.85;;;;;;;;;;4826569;29;20068;-72
2022/07/13 10:57:37;;;;;;;47.33;20.38;;;;;;;;;;4826488;29;20517;-72
2022/07/13 11:02:50;;;;;;;7.75;3.42;;;;;;;;;;4826511;29;20064;-72
2022/07/13 11:05:26;;;;;;;7.25;3.03;;;;;;;;;;4857062;29;20066;-71
2022/07/13 11:07:58;;;;;;;8.27;3.03;;;;;;;;;;4857169;29;20065;-71
2022/07/13 11:10:33;;;;;;;8.75;3.55;;;;;;;;;;4851367;29;20519;-71
2022/07/13 11:13:08;;;;;;;9.55;2.63;;;;;;;;;;4838010;29;20054;-72
2022/07/13 11:15:50;;;;;;;5.90;2.40;;;;;;;;;;4823882;29;20062;-72
2022/07/13 11:18:23;;;;;;;5.32;2.22;;;;;;;;;;4838285;29;20499;-72
2022/07/13 11:21:03;;;;;;;;;;;;;;;;;;4847339;29;20061;-72
2022/07/13 11:26:51;;;;;;;5.80;2.42;;;;;;;;;;4841685;29;20064;-72
2022/07/13 11:29:46;;;;;;;6.25;2.60;;;;;;;;;;4841433;29;20069;-73
2022/07/13 11:32:26;;;;;;;5.35;2.10;;;;;;;;;;4859045;29;20057;-72
2022/07/13 11:34:58;;;;;;;8.15;3.25;;;;;;;;;;4872355;29;20745;-72
2022/07/13 11:37:28;;;;;;;7.68;2.85;;;;;;;;;;4826705;29;20060;-70
2022/07/13 11:39:58;;;;;;;7.10;3.63;;;;;;;;;;4856673;29;20478;-71
2022/07/13 11:42:28;;;;;;;8.63;3.00;;;;;;;;;;4858941;29;20045;-71
2022/07/13 11:44:58;;;;;;;7.30;3.03;;;;;;;;;;4856543;29;20057;-72
2022/07/13 11:47:28;;;;;;;6.97;2.70;;;;;;;;;;4858648;29;20054;-70
2022/07/13 11:49:58;;;;;;;7.22;2.33;;;;;;;;;;4858739;29;20403;-72
2022/07/13 11:52:29;;;;;;;6.00;2.67;;;;;;;;;;4858985;29;20057;-72
2022/07/13 11:55:02;;;;;;;5.97;1.83;;;;;;;;;;4826344;29;20053;-71
2022/07/13 11:57:34;;;;;;;6.25;2.25;;;;;;;;;;4856694;29;20140;-71
2022/07/13 12:00:07;;;;;;;4.55;2.28;;;;;;;;;;4872110;29;20060;-71
2022/07/13 12:02:40;;;;;;;6.32;2.40;;;;;;;;;;4826965;29;20054;-72
2022/07/13 12:05:11;;;;;;;5.18;2.65;;;;;;;;;;4858009;29;20061;-72
2022/07/13 12:08:01;;;;;;;5.47;2.33;;;;;;;;;;4860187;29;20068;-71
2022/07/13 12:10:34;;;;;;;5.45;2.13;;;;;;;;;;4811008;29;20507;-72
2022/07/13 12:13:04;;;;;;;5.68;2.42;;;;;;;;;;4857062;29;20403;-72
2022/07/13 12:15:34;;;;;;;5.13;2.35;;;;;;;;;;4856929;29;20054;-72
2022/07/13 12:18:05;;;;;;;6.32;2.40;;;;;;;;;;4825823;29;20065;-72
2022/07/13 12:20:37;;;;;;;6.38;2.65;;;;;;;;;;4837793;29;20077;-72
2022/07/13 12:23:07;;;;;;;5.50;2.35;;;;;;;;;;4778039;29;20059;-72
2022/07/13 12:25:39;;;;;;;4.13;2.30;;;;;;;;;;4793271;29;20077;-72
2022/07/13 12:28:11;;;;;;;6.45;2.35;;;;;;;;;;4797414;29;20516;-73
2022/07/13 12:31:01;;;;;;;8.80;2.63;;;;;;;;;;4840438;29;20423;-73
2022/07/13 12:33:43;;;;;;;6.45;2.83;;;;;;;;;;4822945;29;20058;-72
2022/07/13 12:36:15;;;;;;;4.95;2.00;;;;;;;;;;4822835;29;20061;-73
2022/07/13 12:38:58;;;;;;;6.00;2.53;;;;;;;;;;4822755;29;20066;-71
2022/07/13 12:41:40;;;;;;;9.60;3.08;;;;;;;;;;4807624;29;20050;-71
2022/07/13 12:44:11;;;;;;;6.57;2.83;;;;;;;;;;4822463;29;20062;-72
2022/07/13 12:46:54;;;;;;;5.15;2.40;;;;;;;;;;4837620;29;20055;-72
2022/07/13 12:49:39;;;;;;;6.47;2.45;;;;;;;;;;4807189;29;20069;-73
2022/07/13 12:52:11;;;;;;;5.38;2.40;;;;;;;;;;4807402;29;20512;-72
2022/07/13 12:54:49;;;;;;;6.30;3.80;;;;;;;;;;4837934;29;20561;-72
2022/07/13 12:57:26;;;;;;;5.97;2.50;;;;;;;;;;4823573;29;20159;-71
2022/07/13 13:00:09;;;;;;;6.13;2.80;;;;;;;;;;4825915;29;20076;-70
2022/07/13 13:02:49;;;;;;;5.72;2.38;;;;;;;;;;4825373;29;20046;-72
2022/07/13 13:05:19;;;;;;;4.47;1.90;;;;;;;;;;4825736;29;20068;-72
2022/07/13 13:07:49;;;;;;;4.88;2.45;;;;;;;;;;4825770;29;20068;-72
2022/07/13 13:10:20;;;;;;;6.65;2.10;;;;;;;;;;4866042;29;20074;-71
2022/07/13 13:12:50;;;;;;;6.82;2.33;;;;;;;;;;4859273;29;20418;-73
2022/07/13 13:15:22;;;;;;;7.95;2.35;;;;;;;;;;4860998;29;20053;-71
2022/07/13 13:17:52;;;;;;;3.72;1.95;;;;;;;;;;4873078;29;20064;-71
2022/07/13 13:20:22;;;;;;;4.65;2.20;;;;;;;;;;4859193;29;20050;-72
2022/07/13 13:22:52;;;;;;;7.10;2.67;;;;;;;;;;4859059;29;20060;-70
2022/07/13 13:25:23;;;;;;;5.68;2.28;;;;;;;;;;4858550;29;20061;-71
2022/07/13 13:27:54;;;;;;;39.85;14.55;;;;;;;;;;4812880;29;20064;-72
2022/07/13 13:30:44;;;;;;;7.93;3.05;;;;;;;;;;4858599;29;20058;-71
2022/07/13 13:33:17;;;;;;;6.57;2.75;;;;;;;;;;4858612;29;20054;-71
2022/07/13 13:35:47;;;;;;;6.82;2.60;;;;;;;;;;4876818;29;20520;-71
2022/07/13 13:38:18;;;;;;;8.75;3.90;;;;;;;;;;4877090;29;20108;-71
2022/07/13 13:40:48;;;;;;;6.38;2.92;;;;;;;;;;4830603;29;20630;-70
2022/07/13 13:43:18;;;;;;;14.57;6.25;;;;;;;;;;4830941;29;20061;-70
2022/07/13 13:45:49;;;;;;;12.07;4.93;;;;;;;;;;4858089;29;20053;-69
2022/07/13 13:48:19;;;;;;;13.40;4.32;;;;;;;;;;4858303;29;20054;-69
2022/07/13 13:50:50;;;;;;;14.20;5.75;;;;;;;;;;4827248;29;20053;-70
2022/07/13 13:53:23;;;;;;;6.32;2.50;;;;;;;;;;4858094;29;20053;-70
2022/07/13 13:55:53;;;;;;;6.45;2.70;;;;;;;;;;4843084;29;20061;-70
2022/07/13 13:58:24;;;;;;;5.57;2.20;;;;;;;;;;4858157;29;20068;-70
2022/07/13 14:00:55;;;;;;;5.35;2.20;;;;;;;;;;4839460;29;20061;-69
2022/07/13 14:03:26;;;;;;;4.75;2.05;;;;;;;;;;4821291;29;20047;-69
2022/07/13 14:05:56;;;;;;;3.42;1.70;;;;;;;;;;4821146;29;20066;-68
2022/07/13 14:08:28;;;;;;;6.38;2.72;;;;;;;;;;4761598;29;20069;-70
2022/07/13 14:11:02;;;;;;;8.80;4.22;;;;;;;;;;4820806;29;20054;-69
2022/07/13 14:13:53;;;;;;;5.63;2.33;;;;;;;;;;4821201;29;20085;-69
2022/07/13 14:16:23;;;;;;;4.78;2.72;;;;;;;;;;4821332;29;20559;-69
2022/07/13 14:18:54;;;;;;;4.63;2.00;;;;;;;;;;4820886;29;20058;-68
2022/07/13 14:21:25;;;;;;;3.70;1.73;;;;;;;;;;4820974;29;20070;-70
2022/07/13 14:23:55;;;;;;;5.50;2.30;;;;;;;;;;4761274;29;20103;-69
2022/07/13 14:26:46;;;;;;;3.55;1.95;;;;;;;;;;4820905;29;20059;-69
2022/07/13 14:29:31;;;;;;;3.85;1.92;;;;;;;;;;4802603;29;20054;-69
2022/07/13 14:32:02;;;;;;;4.53;2.13;;;;;;;;;;4772967;29;20061;-70
2022/07/13 14:34:53;;;;;;;5.40;2.00;;;;;;;;;;4840401;29;20054;-69
2022/07/13 14:37:24;;;;;;;4.25;1.77;;;;;;;;;;4839595;29;20065;-70
2022/07/13 14:39:55;;;;;;;3.88;1.95;;;;;;;;;;4838991;29;20069;-69
2022/07/13 14:42:25;;;;;;;4.65;2.22;;;;;;;;;;4857530;29;20073;-68
2022/07/13 14:44:56;;;;;;;4.90;2.03;;;;;;;;;;4841671;29;20065;-68
2022/07/13 14:47:26;;;;;;;4.70;2.20;;;;;;;;;;4872532;29;20049;-69
2022/07/13 14:50:17;;;;;;;5.85;2.22;;;;;;;;;;4857231;29;20053;-68
2022/07/13 14:52:54;;;;;;;6.90;3.22;;;;;;;;;;4857219;29;20060;-68
2022/07/13 14:55:24;;;;;;;5.43;2.00;;;;;;;;;;4874756;29;20056;-68
2022/07/13 14:57:55;;;;;;;5.10;1.80;;;;;;;;;;4857214;29;20077;-68
2022/07/13 15:00:26;;;;;;;5.03;2.00;;;;;;;;;;4826708;29;20062;-68
2022/07/13 15:02:57;;;;;;;6.43;2.00;;;;;;;;;;4857390;29;20068;-69
2022/07/13 15:05:31;;;;;;;4.85;1.58;;;;;;;;;;4856987;29;20640;-68
2022/07/13 15:08:02;;;;;;;4.32;1.67;;;;;;;;;;4873030;29;20057;-69
2022/07/13 15:10:32;;;;;;;4.57;1.80;;;;;;;;;;4875368;29;20061;-69
2022/07/13 15:13:03;;;;;;;3.55;1.35;;;;;;;;;;4875257;29;20498;-67
2022/07/13 15:15:34;;;;;;;4.10;1.60;;;;;;;;;;4860348;29;20064;-68
2022/07/13 15:18:05;;;;;;;4.63;1.88;;;;;;;;;;4860412;29;20533;-68
2022/07/13 15:20:40;;;;;;;4.75;2.05;;;;;;;;;;4844614;29;20061;-68
2022/07/13 15:23:10;;;;;;;3.67;1.88;;;;;;;;;;4875554;29;20076;-68
2022/07/13 15:25:41;;;;;;;3.95;1.58;;;;;;;;;;4856497;29;20411;-68
2022/07/13 15:28:11;;;;;;;4.05;1.70;;;;;;;;;;4860278;29;20462;-69
2022/07/13 15:30:43;;;;;;;4.10;1.77;;;;;;;;;;4808535;29;20054;-68